createdAt,value
2022-09-16T00:01:35.916Z,78.84
2022-09-16T00:03:37.360Z,79.01
2022-09-16T00:05:40.047Z,78.97
2022-09-16T00:07:41.348Z,78.65
2022-09-16T00:09:42.680Z,78.82
2022-09-16T00:11:44.001Z,78.96
2022-09-16T00:13:45.311Z,78.64
2022-09-16T00:15:46.650Z,79.03
2022-09-16T00:17:47.985Z,79.03
2022-09-16T00:19:50.565Z,78.82
2022-09-16T00:21:51.871Z,79.15
2022-09-16T00:23:53.175Z,79.36
2022-09-16T00:25:54.516Z,79.43
2022-09-16T00:27:55.867Z,79.33
2022-09-16T00:29:57.185Z,78.82
2022-09-16T00:31:58.453Z,79.20
2022-09-16T00:33:59.735Z,79.16
2022-09-16T00:36:01.001Z,79.29
2022-09-16T00:38:02.305Z,79.74
2022-09-16T00:40:03.681Z,79.22
2022-09-16T00:42:05.059Z,79.77
2022-09-16T00:44:06.330Z,79.41
2022-09-16T00:46:07.700Z,79.95
2022-09-16T00:48:09.604Z,79.53
2022-09-16T00:50:10.913Z,78.96
2022-09-16T00:52:12.181Z,79.54
2022-09-16T00:54:13.448Z,79.37
2022-09-16T00:56:14.725Z,79.26
2022-09-16T00:58:16.032Z,79.70
2022-09-16T01:00:17.828Z,79.26
2022-09-16T01:02:19.151Z,79.73
2022-09-16T01:04:20.479Z,79.20
2022-09-16T01:06:21.739Z,79.12
2022-09-16T01:08:23.066Z,79.51
2022-09-16T01:10:24.409Z,79.80
2022-09-16T01:12:25.902Z,79.59
2022-09-16T01:14:45.726Z,80.13
2022-09-16T01:16:47.008Z,79.78
2022-09-16T01:18:48.280Z,79.56
2022-09-16T01:20:49.596Z,80.07
2022-09-16T01:22:50.872Z,80.04
2022-09-16T01:24:52.179Z,80.00
2022-09-16T01:26:53.439Z,79.66
2022-09-16T01:28:54.742Z,79.99
2022-09-16T01:30:56.201Z,79.82
2022-09-16T01:32:57.594Z,79.47
2022-09-16T01:34:58.947Z,79.90
2022-09-16T01:37:00.304Z,79.41
2022-09-16T01:39:01.605Z,80.00
2022-09-16T01:41:02.930Z,79.46
2022-09-16T01:43:04.287Z,79.91
2022-09-16T01:45:05.582Z,79.87
2022-09-16T01:47:06.846Z,79.79
2022-09-16T01:49:08.112Z,79.82
2022-09-16T01:51:09.399Z,79.96
2022-09-16T01:53:10.683Z,80.32
2022-09-16T01:55:11.983Z,80.05
2022-09-16T01:57:13.498Z,79.69
2022-09-16T01:59:15.112Z,80.01
2022-09-16T02:01:16.481Z,79.70
2022-09-16T02:03:17.782Z,80.07
2022-09-16T02:05:19.079Z,79.67
2022-09-16T02:07:20.603Z,79.89
2022-09-16T02:09:21.861Z,79.93
2022-09-16T02:11:23.159Z,80.45
2022-09-16T02:13:24.483Z,80.18
2022-09-16T02:15:25.799Z,79.82
2022-09-16T02:17:27.076Z,79.98
2022-09-16T02:19:28.351Z,80.25
2022-09-16T02:21:29.622Z,80.13
2022-09-16T02:23:33.236Z,80.49
2022-09-16T02:25:34.595Z,80.20
2022-09-16T02:27:35.898Z,80.11
2022-09-16T02:29:37.191Z,80.11
2022-09-16T02:31:38.530Z,80.35
2022-09-16T02:33:39.811Z,80.71
2022-09-16T02:35:41.102Z,80.41
2022-09-16T02:37:42.453Z,80.36
2022-09-16T02:39:45.010Z,80.58
2022-09-16T02:41:47.134Z,80.52
2022-09-16T02:43:48.399Z,80.48
2022-09-16T02:45:49.723Z,80.42
2022-09-16T02:47:51.003Z,80.47
2022-09-16T02:49:52.267Z,80.42
2022-09-16T02:51:53.771Z,80.50
2022-09-16T02:53:55.139Z,80.28
2022-09-16T02:55:56.437Z,80.36
2022-09-16T02:57:57.702Z,80.64
2022-09-16T02:59:59.003Z,80.69
2022-09-16T03:02:01.274Z,80.59
2022-09-16T03:04:02.712Z,80.78
2022-09-16T03:06:04.117Z,80.80
2022-09-16T03:08:07.271Z,80.59
2022-09-16T03:10:09.001Z,80.94
2022-09-16T03:12:10.299Z,80.60
2022-09-16T03:14:11.570Z,80.80
2022-09-16T03:16:13.387Z,81.21
2022-09-16T03:18:14.756Z,80.59
2022-09-16T03:20:16.015Z,80.91
2022-09-16T03:22:17.286Z,80.95
2022-09-16T03:24:18.563Z,80.78
2022-09-16T03:26:19.858Z,80.78
2022-09-16T03:28:21.515Z,80.62
2022-09-16T03:30:22.810Z,80.49
2022-09-16T03:32:24.134Z,80.11
2022-09-16T03:34:25.399Z,80.14
2022-09-16T03:36:26.667Z,80.18
2022-09-16T03:38:28.482Z,80.02
2022-09-16T03:40:29.954Z,80.41
2022-09-16T03:42:31.366Z,80.34
2022-09-16T03:44:32.659Z,80.36
2022-09-16T03:46:34.046Z,80.02
2022-09-16T03:48:35.367Z,80.54
2022-09-16T03:50:36.687Z,80.08
2022-09-16T03:52:38.022Z,80.33
2022-09-16T03:54:39.298Z,80.33
2022-09-16T03:56:40.563Z,80.76
2022-09-16T03:58:41.840Z,80.91
2022-09-16T04:00:43.109Z,80.78
2022-09-16T04:02:44.541Z,81.20
2022-09-16T04:04:46.123Z,80.84
2022-09-16T04:06:47.596Z,80.80
2022-09-16T04:08:50.681Z,80.90
2022-09-16T04:10:51.941Z,80.85
2022-09-16T04:12:53.554Z,80.83
2022-09-16T04:14:54.923Z,80.77
2022-09-16T04:16:56.261Z,80.53
2022-09-16T04:18:57.569Z,80.75
2022-09-16T04:20:58.875Z,80.83
2022-09-16T04:23:00.191Z,80.63
2022-09-16T04:25:01.810Z,80.53
2022-09-16T04:27:03.078Z,80.89
2022-09-16T04:29:04.344Z,81.03
2022-09-16T04:31:05.728Z,80.88
2022-09-16T04:33:07.074Z,80.92
2022-09-16T04:35:08.353Z,81.15
2022-09-16T04:37:09.647Z,81.22
2022-09-16T04:39:12.227Z,80.96
2022-09-16T04:41:13.509Z,80.73
2022-09-16T04:43:15.107Z,80.79
2022-09-16T04:45:16.458Z,80.49
2022-09-16T04:47:17.727Z,80.62
2022-09-16T04:49:19.002Z,80.43
2022-09-16T04:51:20.336Z,80.59
2022-09-16T04:53:21.666Z,80.39
2022-09-16T04:55:23.270Z,80.90
2022-09-16T04:57:24.558Z,80.58
2022-09-16T04:59:25.901Z,80.92
2022-09-16T05:01:27.382Z,81.19
2022-09-16T05:03:28.813Z,81.11
2022-09-16T05:05:30.171Z,81.35
2022-09-16T05:07:31.435Z,79.91
2022-09-16T05:09:32.760Z,77.89
2022-09-16T05:11:34.068Z,77.18
2022-09-16T05:13:35.395Z,79.70
2022-09-16T05:15:36.755Z,79.35
2022-09-16T05:17:50.959Z,79.27
2022-09-16T05:19:52.907Z,79.69
2022-09-16T05:21:54.174Z,79.93
2022-09-16T05:23:56.073Z,79.78
2022-09-16T05:25:57.434Z,79.88
2022-09-16T05:27:58.752Z,80.23
2022-09-16T05:30:00.130Z,80.45
2022-09-16T05:32:01.431Z,79.92
2022-09-16T05:34:02.726Z,80.17
2022-09-16T05:36:03.988Z,80.45
2022-09-16T05:38:05.276Z,80.31
2022-09-16T05:40:06.656Z,80.47
2022-09-16T05:42:07.927Z,80.88
2022-09-16T05:44:09.203Z,80.83
2022-09-16T05:46:11.142Z,80.72
2022-09-16T05:48:12.438Z,80.94
2022-09-16T05:50:13.700Z,80.93
2022-09-16T05:52:14.983Z,80.90
2022-09-16T05:54:18.341Z,81.13
2022-09-16T05:56:19.715Z,81.28
2022-09-16T05:58:21.022Z,81.40
2022-09-16T06:00:22.983Z,80.55
2022-09-16T06:02:24.901Z,80.60
2022-09-16T06:04:26.239Z,81.49
2022-09-16T06:06:27.505Z,80.97
2022-09-16T06:08:28.960Z,79.75
2022-09-16T06:10:30.406Z,80.21
2022-09-16T06:12:31.687Z,80.60
2022-09-16T06:14:32.987Z,80.95
2022-09-16T06:16:34.450Z,80.95
2022-09-16T06:18:36.651Z,80.62
2022-09-16T06:20:37.918Z,81.15
2022-09-16T06:22:40.020Z,80.67
2022-09-16T06:24:41.521Z,80.49
2022-09-16T06:26:42.774Z,80.54
2022-09-16T06:28:44.279Z,80.49
2022-09-16T06:30:45.706Z,80.44
2022-09-16T06:32:47.027Z,80.53
2022-09-16T06:34:48.323Z,80.55
2022-09-16T06:36:49.671Z,80.20
2022-09-16T06:38:51.269Z,80.18
2022-09-16T06:40:52.587Z,80.17
2022-09-16T06:42:58.330Z,80.26
2022-09-16T06:45:03.173Z,80.20
2022-09-16T06:47:04.494Z,79.98
2022-09-16T06:49:06.712Z,80.36
2022-09-16T06:51:08.219Z,79.88
2022-09-16T06:53:09.501Z,80.03
2022-09-16T06:55:10.781Z,79.83
2022-09-16T06:57:12.464Z,79.77
2022-09-16T06:59:14.455Z,79.81
2022-09-16T07:01:15.803Z,79.70
2022-09-16T07:03:17.120Z,79.81
2022-09-16T07:05:18.598Z,79.59
2022-09-16T07:07:19.871Z,79.65
2022-09-16T07:09:21.195Z,79.50
2022-09-16T07:11:22.478Z,79.66
2022-09-16T07:13:23.779Z,79.72
2022-09-16T07:15:25.043Z,79.07
2022-09-16T07:17:27.341Z,79.83
2022-09-16T07:19:28.683Z,79.38
2022-09-16T07:21:30.535Z,79.62
2022-09-16T07:23:32.393Z,79.53
2022-09-16T07:25:35.836Z,79.50
2022-09-16T07:27:37.714Z,79.43
2022-09-16T07:29:39.038Z,79.35
2022-09-16T07:31:40.343Z,79.23
2022-09-16T07:33:41.671Z,79.21
2022-09-16T07:35:42.964Z,79.28
2022-09-16T07:37:44.239Z,79.17
2022-09-16T07:39:45.987Z,79.13
2022-09-16T07:41:48.718Z,79.30
2022-09-16T07:43:50.723Z,79.28
2022-09-16T07:45:52.075Z,79.22
2022-09-16T07:47:53.408Z,79.03
2022-09-16T07:49:56.158Z,79.16
2022-09-16T07:51:57.487Z,79.07
2022-09-16T07:53:59.445Z,79.02
2022-09-16T07:56:00.735Z,79.14
2022-09-16T07:58:02.073Z,79.14
2022-09-16T08:00:03.386Z,78.97
2022-09-16T08:02:05.326Z,78.84
2022-09-16T08:04:06.770Z,78.79
2022-09-16T08:06:08.075Z,78.69
2022-09-16T08:08:09.585Z,78.85
2022-09-16T08:10:11.059Z,78.91
2022-09-16T08:12:14.578Z,79.02
2022-09-16T08:14:15.883Z,78.96
2022-09-16T08:16:17.195Z,78.97
2022-09-16T08:18:18.510Z,78.81
2022-09-16T08:20:20.200Z,78.74
2022-09-16T08:22:23.482Z,78.75
2022-09-16T08:24:24.803Z,78.84
2022-09-16T08:26:26.203Z,78.97
2022-09-16T08:28:35.841Z,78.88
2022-09-16T08:30:51.264Z,78.87
2022-09-16T08:32:54.422Z,78.87
2022-09-16T08:34:56.004Z,79.03
2022-09-16T08:36:57.305Z,78.75
2022-09-16T08:38:58.774Z,78.87
2022-09-16T08:41:00.108Z,78.97
2022-09-16T08:43:01.509Z,78.84
2022-09-16T08:45:02.846Z,78.94
2022-09-16T08:47:04.112Z,78.50
2022-09-16T08:49:05.438Z,78.63
2022-09-16T08:51:08.050Z,78.50
2022-09-16T08:53:09.399Z,78.72
2022-09-16T08:55:10.874Z,78.88
2022-09-16T08:57:12.265Z,78.82
2022-09-16T08:59:13.556Z,78.73
2022-09-16T09:01:14.887Z,78.67
2022-09-16T09:03:16.238Z,78.70
2022-09-16T09:05:18.012Z,78.51
2022-09-16T09:07:19.318Z,78.68
2022-09-16T09:09:20.594Z,78.70
2022-09-16T09:11:21.934Z,78.63
2022-09-16T09:13:24.149Z,78.64
2022-09-16T09:15:28.249Z,78.54
2022-09-16T09:17:29.769Z,78.73
2022-09-16T09:19:31.512Z,78.43
2022-09-16T09:21:32.788Z,78.34
2022-09-16T09:23:34.096Z,77.96
2022-09-16T09:25:35.433Z,77.77
2022-09-16T09:29:38.030Z,77.51
2022-09-16T09:31:41.029Z,78.04
2022-09-16T09:33:46.569Z,78.08
2022-09-16T09:35:50.027Z,77.66
2022-09-16T09:37:51.296Z,78.09
2022-09-16T09:39:52.664Z,77.66
2022-09-16T09:41:53.992Z,78.08
2022-09-16T09:43:55.266Z,78.34
2022-09-16T09:45:56.756Z,78.27
2022-09-16T09:47:58.084Z,78.23
2022-09-16T09:49:59.384Z,78.23
2022-09-16T09:52:00.729Z,78.42
2022-09-16T09:54:02.235Z,78.29
2022-09-16T09:56:03.492Z,78.47
2022-09-16T09:58:05.413Z,78.42
2022-09-16T10:00:11.144Z,78.42
2022-09-16T10:02:12.462Z,78.46
2022-09-16T10:04:13.835Z,78.32
2022-09-16T10:06:15.583Z,78.60
2022-09-16T10:08:16.968Z,78.53
2022-09-16T10:10:18.543Z,78.60
2022-09-16T10:12:19.857Z,78.27
2022-09-16T10:14:21.135Z,78.20
2022-09-16T10:16:22.688Z,77.77
2022-09-16T10:18:24.112Z,77.20
2022-09-16T10:20:25.404Z,77.24
2022-09-16T10:22:26.865Z,77.20
2022-09-16T10:24:28.275Z,77.12
2022-09-16T10:26:29.575Z,77.14
2022-09-16T10:28:30.952Z,77.26
2022-09-16T10:30:32.928Z,77.41
2022-09-16T10:32:34.228Z,77.35
2022-09-16T10:34:35.553Z,77.56
2022-09-16T10:36:36.847Z,77.64
2022-09-16T10:38:38.279Z,77.45
2022-09-16T10:40:39.563Z,77.69
2022-09-16T10:42:40.850Z,77.54
2022-09-16T10:44:42.172Z,77.38
2022-09-16T10:46:43.474Z,77.40
2022-09-16T10:48:44.880Z,77.20
2022-09-16T10:50:46.228Z,77.47
2022-09-16T10:52:47.572Z,77.57
2022-09-16T10:54:48.873Z,77.41
2022-09-16T10:56:50.185Z,77.63
2022-09-16T10:58:51.496Z,77.72
2022-09-16T11:00:52.907Z,77.58
2022-09-16T11:02:54.268Z,77.56
2022-09-16T11:04:55.591Z,77.44
2022-09-16T11:06:56.868Z,77.53
2022-09-16T11:08:58.144Z,77.06
2022-09-16T11:11:00.478Z,77.43
2022-09-16T11:13:01.779Z,77.49
2022-09-16T11:15:03.068Z,77.50
2022-09-16T11:17:05.537Z,77.49
2022-09-16T11:19:06.911Z,77.60
2022-09-16T11:21:08.186Z,77.37
2022-09-16T11:23:09.555Z,77.87
2022-09-16T11:25:10.876Z,78.13
2022-09-16T11:27:12.151Z,78.19
2022-09-16T11:29:13.426Z,78.06
2022-09-16T11:31:14.786Z,78.11
2022-09-16T11:33:16.655Z,77.90
2022-09-16T11:35:18.605Z,78.08
2022-09-16T11:37:19.887Z,77.97
2022-09-16T11:39:21.181Z,77.40
2022-09-16T11:41:22.515Z,77.46
2022-09-16T11:43:23.778Z,77.29
2022-09-16T11:45:25.279Z,70.46
2022-09-16T11:47:26.656Z,72.52
2022-09-16T11:49:28.702Z,68.42
2022-09-16T11:51:30.099Z,68.93
2022-09-16T11:53:34.171Z,68.47
2022-09-16T11:55:37.120Z,68.06
2022-09-16T11:57:38.408Z,68.57
2022-09-16T11:59:39.776Z,69.21
2022-09-16T12:01:41.169Z,69.02
2022-09-16T12:03:42.509Z,69.05
2022-09-16T12:05:43.975Z,69.58
2022-09-16T12:07:45.335Z,69.19
2022-09-16T12:09:46.696Z,71.09
2022-09-16T12:11:48.087Z,71.51
2022-09-16T12:13:49.418Z,71.97
2022-09-16T12:15:51.180Z,71.29
2022-09-16T12:17:52.474Z,71.99
2022-09-16T12:19:53.741Z,72.23
2022-09-16T12:21:57.898Z,72.03
2022-09-16T12:23:59.637Z,71.88
2022-09-16T12:26:00.963Z,72.06
2022-09-16T12:28:02.272Z,71.99
2022-09-16T12:30:03.588Z,72.96
2022-09-16T12:32:05.260Z,72.37
2022-09-16T12:34:06.580Z,71.59
2022-09-16T12:36:07.924Z,71.57
2022-09-16T12:38:09.223Z,71.47
2022-09-16T12:40:10.672Z,71.22
2022-09-16T12:42:12.476Z,71.21
2022-09-16T12:44:30.548Z,70.97
2022-09-16T12:46:37.065Z,72.28
2022-09-16T12:48:38.454Z,72.63
2022-09-16T12:50:39.760Z,72.35
2022-09-16T12:52:41.178Z,71.50
2022-09-16T12:55:03.967Z,71.10
2022-09-16T12:57:04.772Z,72.15
2022-09-16T12:59:06.207Z,72.27
2022-09-16T13:01:07.522Z,72.83
2022-09-16T13:03:08.857Z,73.10
2022-09-16T13:05:10.227Z,72.91
2022-09-16T13:07:11.532Z,71.75
2022-09-16T13:09:12.831Z,71.84
2022-09-16T13:12:00.559Z,73.13
2022-09-16T13:13:35.462Z,72.63
2022-09-16T13:15:36.898Z,71.05
2022-09-16T13:17:38.215Z,71.64
2022-09-16T13:19:39.486Z,73.21
2022-09-16T13:21:40.780Z,72.71
2022-09-16T13:23:42.092Z,72.99
2022-09-16T13:25:43.409Z,74.06
2022-09-16T13:27:44.729Z,74.11
2022-09-16T13:29:46.011Z,74.75
2022-09-16T13:31:47.580Z,75.10
2022-09-16T13:33:49.055Z,74.99
2022-09-16T13:35:50.376Z,75.20
2022-09-16T13:37:51.774Z,75.13
2022-09-16T13:39:53.108Z,75.74
2022-09-16T13:41:54.591Z,75.63
2022-09-16T13:43:55.853Z,75.29
2022-09-16T13:45:57.217Z,75.40
2022-09-16T13:47:58.498Z,75.60
2022-09-16T13:49:59.760Z,75.70
2022-09-16T13:52:01.038Z,75.45
2022-09-16T13:54:04.549Z,75.65
2022-09-16T13:56:05.991Z,75.61
2022-09-16T13:58:07.259Z,75.01
2022-09-16T14:00:09.499Z,75.02
2022-09-16T14:02:11.029Z,74.43
2022-09-16T14:04:12.346Z,74.76
2022-09-16T14:06:13.664Z,74.39
2022-09-16T14:08:14.929Z,74.19
2022-09-16T14:10:16.204Z,74.57
2022-09-16T14:12:17.538Z,74.57
2022-09-16T14:14:43.239Z,74.71
2022-09-16T14:16:40.151Z,75.38
2022-09-16T14:18:41.478Z,76.05
2022-09-16T14:20:42.735Z,76.56
2022-09-16T14:22:46.932Z,75.76
2022-09-16T14:24:52.956Z,76.48
2022-09-16T14:27:02.215Z,76.66
2022-09-16T14:29:03.610Z,76.32
2022-09-16T14:31:04.955Z,76.84
2022-09-16T14:33:06.254Z,76.80
2022-09-16T14:35:07.539Z,77.04
2022-09-16T14:37:08.825Z,77.47
2022-09-16T14:39:10.781Z,77.42
2022-09-16T14:41:12.161Z,77.70
2022-09-16T14:43:13.755Z,77.58
2022-09-16T14:45:16.866Z,77.22
2022-09-16T14:47:29.466Z,77.74
2022-09-16T14:49:32.373Z,77.70
2022-09-16T14:51:35.685Z,77.43
2022-09-16T14:53:38.351Z,77.19
2022-09-16T14:55:40.394Z,76.63
2022-09-16T14:57:41.674Z,75.21
2022-09-16T14:59:43.005Z,74.07
2022-09-16T15:01:44.336Z,72.50
2022-09-16T15:03:45.805Z,73.15
2022-09-16T15:05:47.147Z,73.12
2022-09-16T15:08:12.134Z,73.69
2022-09-16T15:10:09.902Z,73.73
2022-09-16T15:12:11.164Z,74.21
2022-09-16T15:14:12.426Z,74.76
2022-09-16T15:16:13.983Z,74.12
2022-09-16T15:18:15.279Z,72.89
2022-09-16T15:20:17.303Z,73.43
2022-09-16T15:22:18.584Z,71.97
2022-09-16T15:24:19.859Z,71.97
2022-09-16T15:26:22.903Z,73.75
2022-09-16T15:28:24.223Z,74.01
2022-09-16T15:30:25.655Z,73.14
2022-09-16T15:32:28.498Z,73.12
2022-09-16T15:34:30.073Z,73.54
2022-09-16T15:36:31.346Z,71.92
2022-09-16T15:38:32.831Z,71.63
2022-09-16T15:40:35.761Z,72.49
2022-09-16T15:42:37.135Z,72.02
2022-09-16T15:44:38.552Z,72.17
2022-09-16T15:46:39.896Z,72.48
2022-09-16T15:48:41.378Z,72.17
2022-09-16T15:50:42.684Z,72.34
2022-09-16T15:52:44.056Z,72.67
2022-09-16T15:54:45.434Z,73.05
2022-09-16T15:56:46.712Z,73.93
2022-09-16T15:58:48.083Z,73.25
2022-09-16T16:00:49.606Z,73.55
2022-09-16T16:02:51.741Z,74.84
2022-09-16T16:04:53.086Z,74.98
2022-09-16T16:06:54.602Z,75.06
2022-09-16T16:08:58.135Z,75.72
2022-09-16T16:10:59.448Z,76.12
2022-09-16T16:13:00.966Z,76.19
2022-09-16T16:15:02.279Z,76.25
2022-09-16T16:17:18.816Z,76.25
2022-09-16T16:19:20.122Z,76.35
2022-09-16T16:21:21.922Z,76.76
2022-09-16T16:23:23.219Z,76.56
2022-09-16T16:25:24.490Z,76.76
2022-09-16T16:27:25.763Z,76.74
2022-09-16T16:29:27.109Z,77.19
2022-09-16T16:31:28.440Z,76.87
2022-09-16T16:33:29.781Z,77.15
2022-09-16T16:35:31.042Z,77.14
2022-09-16T16:37:47.928Z,77.29
2022-09-16T16:39:49.258Z,76.76
2022-09-16T16:41:50.614Z,76.73
2022-09-16T16:43:51.895Z,77.05
2022-09-16T16:45:53.187Z,76.67
2022-09-16T16:47:54.519Z,76.94
2022-09-16T16:49:55.780Z,76.76
2022-09-16T16:51:57.926Z,76.91
2022-09-16T16:53:59.276Z,76.94
2022-09-16T16:56:00.620Z,77.02
2022-09-16T16:58:01.891Z,76.63
2022-09-16T17:00:03.190Z,76.68
2022-09-16T17:02:04.757Z,76.73
2022-09-16T17:04:06.115Z,76.91
2022-09-16T17:06:07.610Z,76.92
2022-09-16T17:08:09.561Z,76.69
2022-09-16T17:10:11.238Z,75.76
2022-09-16T17:12:13.790Z,75.05
2022-09-16T17:14:15.834Z,75.25
2022-09-16T17:16:17.351Z,74.31
2022-09-16T17:18:18.692Z,74.57
2022-09-16T17:20:20.019Z,74.71
2022-09-16T17:22:21.347Z,74.58
2022-09-16T17:24:22.675Z,74.93
2022-09-16T17:26:24.123Z,75.57
2022-09-16T17:28:25.789Z,75.27
2022-09-16T17:30:27.071Z,75.34
2022-09-16T17:32:28.347Z,75.89
2022-09-16T17:34:30.138Z,76.01
2022-09-16T17:36:31.586Z,76.07
2022-09-16T17:38:32.919Z,75.97
2022-09-16T17:40:34.671Z,76.35
2022-09-16T17:42:36.061Z,76.46
2022-09-16T17:44:37.337Z,76.28
2022-09-16T17:46:38.707Z,76.19
2022-09-16T17:48:40.089Z,76.19
2022-09-16T17:50:41.370Z,76.31
2022-09-16T17:52:42.851Z,76.63
2022-09-16T17:54:44.358Z,76.27
2022-09-16T17:56:45.688Z,76.35
2022-09-16T17:58:47.247Z,76.14
2022-09-16T18:00:48.555Z,76.47
2022-09-16T18:02:49.903Z,76.10
2022-09-16T18:04:51.725Z,76.36
2022-09-16T18:06:53.083Z,76.20
2022-09-16T18:08:54.383Z,76.04
2022-09-16T18:10:55.710Z,76.03
2022-09-16T18:13:00.093Z,76.15
2022-09-16T18:15:01.743Z,75.65
2022-09-16T18:17:03.473Z,76.33
2022-09-16T18:19:05.123Z,76.18
2022-09-16T18:21:06.450Z,76.27
2022-09-16T18:23:07.774Z,76.24
2022-09-16T18:25:09.339Z,76.21
2022-09-16T18:27:10.599Z,75.74
2022-09-16T18:29:12.306Z,74.77
2022-09-16T18:31:14.266Z,74.44
2022-09-16T18:33:15.711Z,73.98
2022-09-16T18:35:16.978Z,72.78
2022-09-16T18:37:18.296Z,72.89
2022-09-16T18:39:19.559Z,73.37
2022-09-16T18:41:21.513Z,73.66
2022-09-16T18:43:22.869Z,73.78
2022-09-16T18:45:24.148Z,73.23
2022-09-16T18:47:25.461Z,72.45
2022-09-16T18:49:28.024Z,72.59
2022-09-16T18:51:29.296Z,72.67
2022-09-16T18:53:30.929Z,73.00
2022-09-16T18:55:32.243Z,73.01
2022-09-16T18:57:33.732Z,72.57
2022-09-16T18:59:36.657Z,73.50
2022-09-16T19:01:38.147Z,72.59
2022-09-16T19:03:39.532Z,72.06
2022-09-16T19:05:40.828Z,72.18
2022-09-16T19:07:42.124Z,72.83
2022-09-16T19:09:45.424Z,73.16
2022-09-16T19:11:46.915Z,73.69
2022-09-16T19:13:48.311Z,73.74
2022-09-16T19:15:50.351Z,73.40
2022-09-16T19:17:51.799Z,73.69
2022-09-16T19:19:53.163Z,73.62
2022-09-16T19:21:54.488Z,73.54
2022-09-16T19:23:56.799Z,73.52
2022-09-16T19:26:00.947Z,73.74
2022-09-16T19:28:02.261Z,73.22
2022-09-16T19:30:03.566Z,73.31
2022-09-16T19:32:05.337Z,74.73
2022-09-16T19:34:06.814Z,74.54
2022-09-16T19:36:08.095Z,74.27
2022-09-16T19:38:09.582Z,74.28
2022-09-16T19:40:11.781Z,73.78
2022-09-16T19:42:13.119Z,73.97
2022-09-16T19:44:14.391Z,72.84
2022-09-16T19:46:15.692Z,73.00
2022-09-16T19:48:17.160Z,73.39
2022-09-16T19:50:18.458Z,73.18
2022-09-16T19:52:19.768Z,72.78
2022-09-16T19:54:23.992Z,72.81
2022-09-16T19:56:25.299Z,73.41
2022-09-16T19:58:26.731Z,73.24
2022-09-16T20:00:41.511Z,73.58
2022-09-16T20:02:49.925Z,73.22
2022-09-16T20:04:51.278Z,73.87
2022-09-16T20:06:52.538Z,74.02
2022-09-16T20:08:53.863Z,74.21
2022-09-16T20:10:55.380Z,73.93
2022-09-16T20:12:59.388Z,73.96
2022-09-16T20:15:01.318Z,73.44
2022-09-16T20:17:02.940Z,73.93
2022-09-16T20:19:04.292Z,73.48
2022-09-16T20:21:05.648Z,73.00
2022-09-16T20:23:07.545Z,73.04
2022-09-16T20:25:22.553Z,73.31
2022-09-16T20:27:24.861Z,73.10
2022-09-16T20:29:26.377Z,73.40
2022-09-16T20:31:27.654Z,73.30
2022-09-16T20:33:33.122Z,73.08
2022-09-16T20:35:34.817Z,73.17
2022-09-16T20:37:36.107Z,73.91
2022-09-16T20:39:37.413Z,74.04
2022-09-16T20:41:38.807Z,73.61
2022-09-16T20:43:40.097Z,73.85
2022-09-16T20:45:41.490Z,73.59
2022-09-16T20:47:42.803Z,74.36
2022-09-16T20:49:44.291Z,73.94
2022-09-16T20:51:45.620Z,74.30
2022-09-16T20:53:46.951Z,74.69
2022-09-16T20:55:48.245Z,73.15
2022-09-16T20:57:49.520Z,73.44
2022-09-16T20:59:51.049Z,74.09
2022-09-16T21:01:52.405Z,74.33
2022-09-16T21:03:53.730Z,74.05
2022-09-16T21:05:55.052Z,74.03
2022-09-16T21:07:56.331Z,73.96
2022-09-16T21:09:57.623Z,73.93
2022-09-16T21:11:58.902Z,74.52
2022-09-16T21:14:00.343Z,74.81
2022-09-16T21:16:01.782Z,73.60
2022-09-16T21:18:03.239Z,73.75
2022-09-16T21:20:04.707Z,73.50
2022-09-16T21:22:05.988Z,73.47
2022-09-16T21:24:07.287Z,72.89
2022-09-16T21:26:08.594Z,73.96
2022-09-16T21:28:09.984Z,74.67
2022-09-16T21:30:11.307Z,74.94
2022-09-16T21:32:12.595Z,74.86
2022-09-16T21:34:13.940Z,75.01
2022-09-16T21:36:15.214Z,75.23
2022-09-16T21:38:17.360Z,75.48
2022-09-16T21:40:23.502Z,75.71
2022-09-16T21:42:24.960Z,75.86
2022-09-16T21:44:26.650Z,76.18
2022-09-16T21:46:28.005Z,76.06
2022-09-16T21:48:31.356Z,76.36
2022-09-16T21:50:32.631Z,76.31
2022-09-16T21:52:33.891Z,76.62
2022-09-16T21:54:35.174Z,76.36
2022-09-16T21:56:36.464Z,76.60
2022-09-16T21:58:37.947Z,76.51
2022-09-16T22:00:39.321Z,76.50
2022-09-16T22:02:40.724Z,76.56
2022-09-16T22:04:42.022Z,76.60
2022-09-16T22:06:43.359Z,77.14
2022-09-16T22:08:48.730Z,76.85
2022-09-16T22:10:50.505Z,77.43
2022-09-16T22:12:51.820Z,77.53
2022-09-16T22:14:53.113Z,77.65
2022-09-16T22:16:54.390Z,77.17
2022-09-16T22:18:55.883Z,77.62
2022-09-16T22:20:58.644Z,78.28
2022-09-16T22:22:59.932Z,77.90
2022-09-16T22:25:01.230Z,77.98
2022-09-16T22:27:02.547Z,77.90
2022-09-16T22:29:03.892Z,78.08
2022-09-16T22:31:05.218Z,77.87
2022-09-16T22:33:06.563Z,78.01
2022-09-16T22:35:07.854Z,78.11
2022-09-16T22:37:09.289Z,77.88
2022-09-16T22:39:10.599Z,78.18
2022-09-16T22:41:11.931Z,78.30
2022-09-16T22:43:13.216Z,78.47
2022-09-16T22:45:14.483Z,78.61
2022-09-16T22:47:15.815Z,78.19
2022-09-16T22:49:17.102Z,78.24
2022-09-16T22:51:18.422Z,78.33
2022-09-16T22:53:19.729Z,78.42
2022-09-16T22:55:20.999Z,78.05
2022-09-16T22:57:22.277Z,78.42
2022-09-16T22:59:23.542Z,78.41
2022-09-16T23:01:24.918Z,78.50
2022-09-16T23:03:26.199Z,78.34
2022-09-16T23:05:27.905Z,78.30
2022-09-16T23:07:29.882Z,78.63
2022-09-16T23:09:31.203Z,78.25
2022-09-16T23:11:32.550Z,78.54
2022-09-16T23:13:33.923Z,78.91
2022-09-16T23:15:35.231Z,78.88
2022-09-16T23:17:36.498Z,78.58
2022-09-16T23:19:37.788Z,78.73
2022-09-16T23:21:39.067Z,79.09
2022-09-16T23:23:40.374Z,78.94
2022-09-16T23:25:41.743Z,79.02
2022-09-16T23:27:43.102Z,79.21
2022-09-16T23:29:44.428Z,78.96
2022-09-16T23:31:45.831Z,79.32
2022-09-16T23:33:47.206Z,79.21
2022-09-16T23:35:48.547Z,79.41
2022-09-16T23:37:49.831Z,79.50
2022-09-16T23:39:51.154Z,79.30
2022-09-16T23:41:52.473Z,79.40
2022-09-16T23:43:54.203Z,79.36
2022-09-16T23:45:55.857Z,79.34
2022-09-16T23:47:57.130Z,79.52
2022-09-16T23:49:58.467Z,79.30
2022-09-16T23:51:59.798Z,79.66
2022-09-16T23:54:01.159Z,79.29
2022-09-16T23:56:02.440Z,79.47
2022-09-16T23:58:03.772Z,79.75
